createdAt,value
2023-04-22T00:00:31.732Z,1215.00
2023-04-22T00:01:31.740Z,1223.00
2023-04-22T00:02:31.851Z,1224.00
2023-04-22T00:03:32.063Z,1216.00
2023-04-22T00:04:31.949Z,1217.00
2023-04-22T00:05:31.887Z,1219.00
2023-04-22T00:06:31.905Z,1213.00
2023-04-22T00:07:31.905Z,1224.00
2023-04-22T00:08:31.945Z,1214.00
2023-04-22T00:09:31.949Z,1219.00
2023-04-22T00:10:31.989Z,1221.00
2023-04-22T00:11:31.985Z,1222.00
2023-04-22T00:12:32.025Z,1213.00
2023-04-22T00:13:32.044Z,1214.00
2023-04-22T00:14:32.112Z,1211.00
2023-04-22T00:15:32.145Z,1218.00
2023-04-22T00:16:32.207Z,1218.00
2023-04-22T00:17:32.247Z,1214.00
2023-04-22T00:18:32.239Z,1220.00
2023-04-22T00:19:33.081Z,1208.00
2023-04-22T00:20:32.381Z,1203.00
2023-04-22T00:21:32.355Z,1218.00
2023-04-22T00:22:32.368Z,1208.00
2023-04-22T00:23:32.414Z,1216.00
2023-04-22T00:24:32.442Z,1214.00
2023-04-22T00:25:32.536Z,1207.00
2023-04-22T00:26:32.768Z,1209.00
2023-04-22T00:27:32.562Z,1200.00
2023-04-22T00:28:32.600Z,1214.00
2023-04-22T00:29:32.622Z,1208.00
2023-04-22T00:30:33.135Z,1211.00
2023-04-22T00:31:32.820Z,1208.00
2023-04-22T00:32:32.750Z,1211.00
2023-04-22T00:33:32.768Z,1215.00
2023-04-22T00:34:32.784Z,1214.00
2023-04-22T00:35:32.863Z,1206.00
2023-04-22T00:36:32.802Z,1212.00
2023-04-22T00:37:32.825Z,1202.00
2023-04-22T00:38:32.871Z,1200.00
2023-04-22T00:39:32.841Z,1206.00
2023-04-22T00:40:32.882Z,1200.00
2023-04-22T00:41:32.878Z,1193.00
2023-04-22T00:42:32.940Z,1192.00
2023-04-22T00:43:32.936Z,1196.00
2023-04-22T00:44:32.956Z,1203.00
2023-04-22T00:45:33.005Z,1203.00
2023-04-22T00:46:33.028Z,1205.00
2023-04-22T00:47:33.045Z,1194.00
2023-04-22T00:48:33.039Z,1200.00
2023-04-22T00:49:33.050Z,1200.00
2023-04-22T00:50:33.106Z,1202.00
2023-04-22T00:51:33.141Z,1202.00
2023-04-22T00:52:33.158Z,1186.00
2023-04-22T00:53:33.163Z,1204.00
2023-04-22T00:54:33.145Z,1200.00
2023-04-22T00:55:33.155Z,1208.00
2023-04-22T00:56:33.587Z,1185.00
2023-04-22T00:57:33.179Z,1196.00
2023-04-22T00:58:33.183Z,1188.00
2023-04-22T00:59:33.186Z,1210.00
2023-04-22T01:00:33.238Z,1199.00
2023-04-22T01:01:33.230Z,1210.00
2023-04-22T01:02:33.338Z,1195.00
2023-04-22T01:03:33.471Z,1186.00
2023-04-22T01:04:33.357Z,1196.00
2023-04-22T01:05:33.290Z,1191.00
2023-04-22T01:06:33.283Z,1189.00
2023-04-22T01:07:33.287Z,1181.00
2023-04-22T01:08:33.318Z,1192.00
2023-04-22T01:09:33.321Z,1192.00
2023-04-22T01:10:33.340Z,1195.00
2023-04-22T01:11:33.370Z,1178.00
2023-04-22T01:12:33.396Z,1182.00
2023-04-22T01:13:33.406Z,1189.00
2023-04-22T01:14:33.406Z,1193.00
2023-04-22T01:15:33.448Z,1185.00
2023-04-22T01:16:33.451Z,1185.00
2023-04-22T01:17:33.431Z,1189.00
2023-04-22T01:18:33.398Z,1181.00
2023-04-22T01:19:33.400Z,1179.00
2023-04-22T01:20:33.420Z,1174.00
2023-04-22T01:21:33.401Z,1173.00
2023-04-22T01:22:33.408Z,1173.00
2023-04-22T01:23:33.391Z,1181.00
2023-04-22T01:24:33.385Z,1181.00
2023-04-22T01:25:33.389Z,1176.00
2023-04-22T01:26:33.399Z,1187.00
2023-04-22T01:27:33.423Z,1179.00
2023-04-22T01:28:33.403Z,1180.00
2023-04-22T01:29:33.392Z,1167.00
2023-04-22T01:30:33.394Z,1166.00
2023-04-22T01:31:33.423Z,1159.00
2023-04-22T01:32:33.414Z,1177.00
2023-04-22T01:33:33.465Z,1167.00
2023-04-22T01:34:33.428Z,1172.00
2023-04-22T01:35:33.405Z,1177.00
2023-04-22T01:36:33.623Z,1170.00
2023-04-22T01:37:33.440Z,1166.00
2023-04-22T01:38:33.430Z,1166.00
2023-04-22T01:39:33.412Z,1156.00
2023-04-22T01:40:33.381Z,1164.00
2023-04-22T01:41:33.380Z,1162.00
2023-04-22T01:42:33.376Z,1168.00
2023-04-22T01:43:33.387Z,1170.00
2023-04-22T01:44:33.365Z,1166.00
2023-04-22T01:45:33.391Z,1178.00
2023-04-22T01:46:33.481Z,1171.00
2023-04-22T01:47:33.384Z,1157.00
2023-04-22T01:48:33.364Z,1157.00
2023-04-22T01:49:33.374Z,1155.00
2023-04-22T01:50:33.380Z,1157.00
2023-04-22T01:51:33.359Z,1146.00
2023-04-22T01:52:33.329Z,1159.00
2023-04-22T01:53:33.329Z,1150.00
2023-04-22T01:54:33.348Z,1165.00
2023-04-22T01:55:33.357Z,1169.00
2023-04-22T01:56:33.332Z,1138.00
2023-04-22T01:57:33.324Z,1152.00
2023-04-22T01:58:33.321Z,1161.00
2023-04-22T01:59:33.337Z,1148.00
2023-04-22T02:00:33.307Z,1143.00
2023-04-22T02:01:33.405Z,1147.00
2023-04-22T02:02:33.366Z,1145.00
2023-04-22T02:03:33.422Z,1144.00
2023-04-22T02:04:33.371Z,1145.00
2023-04-22T02:05:33.332Z,1140.00
2023-04-22T02:06:33.316Z,1142.00
2023-04-22T02:07:33.310Z,1141.00
2023-04-22T02:08:33.311Z,1144.00
2023-04-22T02:09:33.295Z,1144.00
2023-04-22T02:10:33.317Z,1131.00
2023-04-22T02:11:33.293Z,1141.00
2023-04-22T02:12:33.305Z,1144.00
2023-04-22T02:13:33.277Z,1128.00
2023-04-22T02:14:33.295Z,1140.00
2023-04-22T02:15:33.343Z,1142.00
2023-04-22T02:16:33.410Z,1140.00
2023-04-22T02:17:33.277Z,1130.00
2023-04-22T02:18:33.268Z,1138.00
2023-04-22T02:19:33.304Z,1136.00
2023-04-22T02:20:33.265Z,1136.00
2023-04-22T02:21:33.275Z,1144.00
2023-04-22T02:22:33.275Z,1134.00
2023-04-22T02:23:33.262Z,1126.00
2023-04-22T02:24:33.255Z,1138.00
2023-04-22T02:25:33.273Z,1134.00
2023-04-22T02:26:33.254Z,1124.00
2023-04-22T02:27:33.243Z,1134.00
2023-04-22T02:28:33.249Z,1122.00
2023-04-22T02:29:33.242Z,1128.00
2023-04-22T02:30:33.270Z,1128.00
2023-04-22T02:31:33.248Z,1119.00
2023-04-22T02:32:33.276Z,1132.00
2023-04-22T02:33:33.225Z,1126.00
2023-04-22T02:34:33.244Z,1121.00
2023-04-22T02:35:33.222Z,1117.00
2023-04-22T02:36:33.232Z,1119.00
2023-04-22T02:37:33.223Z,1126.00
2023-04-22T02:38:33.209Z,1107.00
2023-04-22T02:39:33.238Z,1108.00
2023-04-22T02:40:33.237Z,1118.00
2023-04-22T02:41:33.226Z,1124.00
2023-04-22T02:42:33.208Z,1117.00
2023-04-22T02:43:33.218Z,1103.00
2023-04-22T02:44:33.199Z,1104.00
2023-04-22T02:45:33.254Z,1109.00
2023-04-22T02:46:33.258Z,1113.00
2023-04-22T02:47:33.221Z,1111.00
2023-04-22T02:48:33.189Z,1110.00
2023-04-22T02:49:33.212Z,1113.00
2023-04-22T02:50:33.207Z,1120.00
2023-04-22T02:51:33.192Z,1127.00
2023-04-22T02:52:33.192Z,1111.00
2023-04-22T02:53:33.176Z,1113.00
2023-04-22T02:54:33.186Z,1118.00
2023-04-22T02:55:33.241Z,1108.00
2023-04-22T02:56:33.185Z,1114.00
2023-04-22T02:57:33.162Z,1109.00
2023-04-22T02:58:33.183Z,1111.00
2023-04-22T02:59:33.287Z,1102.00
2023-04-22T03:00:33.665Z,1110.00
2023-04-22T03:01:33.288Z,1107.00
2023-04-22T03:02:33.331Z,1102.00
2023-04-22T03:03:33.309Z,1104.00
2023-04-22T03:04:33.247Z,1098.00
2023-04-22T03:05:33.202Z,1103.00
2023-04-22T03:06:33.198Z,1103.00
2023-04-22T03:07:33.172Z,1094.00
2023-04-22T03:08:33.209Z,1104.00
2023-04-22T03:09:33.185Z,1085.00
2023-04-22T03:10:33.197Z,1101.00
2023-04-22T03:11:33.207Z,1094.00
2023-04-22T03:12:33.182Z,1097.00
2023-04-22T03:13:33.203Z,1095.00
2023-04-22T03:14:33.217Z,1105.00
2023-04-22T03:15:33.195Z,1097.00
2023-04-22T03:16:33.255Z,1093.00
2023-04-22T03:17:33.294Z,1089.00
2023-04-22T03:18:33.171Z,1095.00
2023-04-22T03:19:33.181Z,1084.00
2023-04-22T03:20:33.190Z,1083.00
2023-04-22T03:21:33.191Z,1091.00
2023-04-22T03:22:33.209Z,1084.00
2023-04-22T03:23:33.180Z,1085.00
2023-04-22T03:24:33.170Z,1088.00
2023-04-22T03:25:33.678Z,1090.00
2023-04-22T03:26:33.189Z,1086.00
2023-04-22T03:27:33.203Z,1075.00
2023-04-22T03:28:33.168Z,1080.00
2023-04-22T03:29:33.170Z,1083.00
2023-04-22T03:30:33.195Z,1073.00
2023-04-22T03:31:33.225Z,1079.00
2023-04-22T03:32:33.194Z,1084.00
2023-04-22T03:33:33.163Z,1078.00
2023-04-22T03:34:34.222Z,1089.00
2023-04-22T03:35:33.363Z,1093.00
2023-04-22T03:36:33.376Z,1078.00
2023-04-22T03:37:33.384Z,1093.00
2023-04-22T03:38:33.404Z,1084.00
2023-04-22T03:39:33.371Z,1088.00
2023-04-22T03:40:33.401Z,1071.00
2023-04-22T03:41:33.356Z,1081.00
2023-04-22T03:42:33.389Z,1078.00
2023-04-22T03:43:33.353Z,1067.00
2023-04-22T03:44:33.369Z,1062.00
2023-04-22T03:45:33.413Z,1072.00
2023-04-22T03:46:33.449Z,1069.00
2023-04-22T03:47:33.376Z,1070.00
2023-04-22T03:48:33.397Z,1074.00
2023-04-22T03:49:33.361Z,1063.00
2023-04-22T03:50:33.365Z,1074.00
2023-04-22T03:51:33.390Z,1064.00
2023-04-22T03:52:33.365Z,1072.00
2023-04-22T03:53:33.356Z,1056.00
2023-04-22T03:54:33.357Z,1067.00
2023-04-22T03:55:33.363Z,1066.00
2023-04-22T03:56:33.383Z,1066.00
2023-04-22T03:57:33.348Z,1048.00
2023-04-22T03:58:33.359Z,1067.00
2023-04-22T03:59:33.360Z,1060.00
2023-04-22T04:00:33.360Z,1074.00
2023-04-22T04:01:33.375Z,1060.00
2023-04-22T04:02:33.450Z,1064.00
2023-04-22T04:03:33.656Z,1056.00
2023-04-22T04:04:33.679Z,1058.00
2023-04-22T04:05:33.433Z,1036.00
2023-04-22T04:06:33.373Z,1044.00
2023-04-22T04:07:33.375Z,1053.00
2023-04-22T04:08:33.406Z,1062.00
2023-04-22T04:09:33.370Z,1058.00
2023-04-22T04:10:33.412Z,1056.00
2023-04-22T04:11:33.421Z,1055.00
2023-04-22T04:12:33.376Z,1049.00
2023-04-22T04:13:33.398Z,1043.00
2023-04-22T04:14:33.388Z,1047.00
2023-04-22T04:15:33.439Z,1050.00
2023-04-22T04:16:33.463Z,1049.00
2023-04-22T04:17:33.472Z,1033.00
2023-04-22T04:18:33.409Z,1049.00
2023-04-22T04:19:33.436Z,1045.00
2023-04-22T04:20:33.428Z,1045.00
2023-04-22T04:21:33.459Z,1049.00
2023-04-22T04:22:33.433Z,1040.00
2023-04-22T04:23:33.421Z,1050.00
2023-04-22T04:24:33.433Z,1045.00
2023-04-22T04:25:33.503Z,1042.00
2023-04-22T04:26:33.472Z,1039.00
2023-04-22T04:27:33.436Z,1036.00
2023-04-22T04:28:33.463Z,1037.00
2023-04-22T04:29:33.471Z,1038.00
2023-04-22T04:30:33.665Z,1037.00
2023-04-22T04:31:33.500Z,1038.00
2023-04-22T04:32:33.535Z,1050.00
2023-04-22T04:33:33.477Z,1043.00
2023-04-22T04:34:33.472Z,1031.00
2023-04-22T04:35:33.482Z,1033.00
2023-04-22T04:36:33.477Z,1034.00
2023-04-22T04:37:33.491Z,1022.00
2023-04-22T04:38:33.493Z,1032.00
2023-04-22T04:39:33.490Z,1024.00
2023-04-22T04:40:33.524Z,1025.00
2023-04-22T04:41:33.510Z,1028.00
2023-04-22T04:42:33.489Z,1025.00
2023-04-22T04:43:33.491Z,1021.00
2023-04-22T04:44:33.495Z,1023.00
2023-04-22T04:45:33.496Z,1029.00
2023-04-22T04:46:33.532Z,1023.00
2023-04-22T04:47:33.523Z,1039.00
2023-04-22T04:48:33.506Z,1030.00
2023-04-22T04:49:33.501Z,1029.00
2023-04-22T04:50:33.505Z,1018.00
2023-04-22T04:51:33.536Z,1031.00
2023-04-22T04:52:33.499Z,1029.00
2023-04-22T04:53:33.507Z,1029.00
2023-04-22T04:54:33.515Z,1025.00
2023-04-22T04:55:33.506Z,1017.00
2023-04-22T04:56:33.518Z,1021.00
2023-04-22T04:57:33.512Z,1020.00
2023-04-22T04:58:33.529Z,1021.00
2023-04-22T04:59:33.527Z,1010.00
2023-04-22T05:00:33.522Z,1020.00
2023-04-22T05:01:33.544Z,1024.00
2023-04-22T05:02:33.612Z,1008.00
2023-04-22T05:03:33.722Z,1022.00
2023-04-22T05:04:33.646Z,1017.00
2023-04-22T05:05:33.488Z,1014.00
2023-04-22T05:06:33.741Z,1012.00
2023-04-22T05:07:33.500Z,1029.00
2023-04-22T05:08:33.473Z,1017.00
2023-04-22T05:09:33.467Z,1011.00
2023-04-22T05:10:33.464Z,1025.00
2023-04-22T05:11:33.471Z,1025.00
2023-04-22T05:12:33.476Z,1016.00
2023-04-22T05:13:33.513Z,1014.00
2023-04-22T05:14:33.546Z,1010.00
2023-04-22T05:15:33.535Z,1027.00
2023-04-22T05:16:33.611Z,1014.00
2023-04-22T05:17:33.605Z,1011.00
2023-04-22T05:18:33.618Z,1010.00
2023-04-22T05:19:33.686Z,999.00
2023-04-22T05:20:35.853Z,995.00
2023-04-22T05:21:33.816Z,998.00
2023-04-22T05:22:33.899Z,997.00
2023-04-22T05:23:33.938Z,1003.00
2023-04-22T05:24:33.996Z,1001.00
2023-04-22T05:25:34.112Z,1000.00
2023-04-22T05:26:34.109Z,995.00
2023-04-22T05:27:34.180Z,994.00
2023-04-22T05:28:34.221Z,999.00
2023-04-22T05:29:34.285Z,993.00
2023-04-22T05:30:34.389Z,991.00
2023-04-22T05:31:34.440Z,996.00
2023-04-22T05:32:34.474Z,986.00
2023-04-22T05:33:34.508Z,990.00
2023-04-22T05:34:34.536Z,972.00
2023-04-22T05:35:34.610Z,986.00
2023-04-22T05:36:34.655Z,987.00
2023-04-22T05:37:34.679Z,996.00
2023-04-22T05:38:34.762Z,992.00
2023-04-22T05:39:34.775Z,990.00
2023-04-22T05:40:34.810Z,989.00
2023-04-22T05:41:34.852Z,993.00
2023-04-22T05:42:34.891Z,995.00
2023-04-22T05:43:34.922Z,994.00
2023-04-22T05:44:34.955Z,987.00
2023-04-22T05:45:35.049Z,996.00
2023-04-22T05:46:35.110Z,995.00
2023-04-22T05:47:35.092Z,994.00
2023-04-22T05:48:35.143Z,999.00
2023-04-22T05:49:35.165Z,1003.00
2023-04-22T05:50:35.201Z,999.00
2023-04-22T05:51:35.225Z,991.00
2023-04-22T05:52:35.244Z,997.00
2023-04-22T05:53:35.276Z,1001.00
2023-04-22T05:54:35.358Z,1005.00
2023-04-22T05:55:35.380Z,992.00
2023-04-22T05:56:35.418Z,1008.00
2023-04-22T05:57:35.418Z,993.00
2023-04-22T05:58:35.456Z,992.00
2023-04-22T05:59:35.507Z,994.00
2023-04-22T06:00:35.570Z,999.00
2023-04-22T06:01:35.564Z,997.00
2023-04-22T06:02:35.767Z,1000.00
2023-04-22T06:03:35.888Z,996.00
2023-04-22T06:04:37.785Z,1000.00
2023-04-22T06:05:35.964Z,1001.00
2023-04-22T06:06:35.887Z,996.00
2023-04-22T06:07:35.883Z,994.00
2023-04-22T06:08:35.925Z,1007.00
2023-04-22T06:09:35.959Z,995.00
2023-04-22T06:10:36.041Z,994.00
2023-04-22T06:11:36.044Z,997.00
2023-04-22T06:12:36.062Z,992.00
2023-04-22T06:13:36.129Z,998.00
2023-04-22T06:14:36.170Z,999.00
2023-04-22T06:15:36.328Z,1001.00
2023-04-22T06:16:36.241Z,996.00
2023-04-22T06:17:36.304Z,1000.00
2023-04-22T06:18:37.859Z,1004.00
2023-04-22T06:19:39.477Z,1003.00
2023-04-22T06:20:36.319Z,1022.00
2023-04-22T06:21:36.315Z,1017.00
2023-04-22T06:22:36.306Z,1008.00
2023-04-22T06:23:36.311Z,1008.00
2023-04-22T06:24:36.282Z,1016.00
2023-04-22T06:25:36.333Z,1018.00
2023-04-22T06:26:36.277Z,1027.00
2023-04-22T06:27:36.277Z,1033.00
2023-04-22T06:28:36.249Z,1037.00
2023-04-22T06:29:36.274Z,1035.00
2023-04-22T06:30:36.288Z,1038.00
2023-04-22T06:31:36.393Z,1052.00
2023-04-22T06:32:36.240Z,1039.00
2023-04-22T06:33:36.244Z,1047.00
2023-04-22T06:34:36.220Z,1068.00
2023-04-22T06:35:36.232Z,1069.00
2023-04-22T06:36:36.201Z,1065.00
2023-04-22T06:37:36.211Z,1074.00
2023-04-22T06:38:36.245Z,1073.00
2023-04-22T06:39:36.195Z,1074.00
2023-04-22T06:40:36.169Z,1069.00
2023-04-22T06:41:36.180Z,1078.00
2023-04-22T06:42:36.158Z,1080.00
2023-04-22T06:43:36.157Z,1091.00
2023-04-22T06:44:36.184Z,1087.00
2023-04-22T06:45:36.139Z,1078.00
2023-04-22T06:46:36.131Z,1085.00
2023-04-22T06:47:36.178Z,1082.00
2023-04-22T06:48:36.112Z,1085.00
2023-04-22T06:49:36.160Z,1085.00
2023-04-22T06:50:36.107Z,1081.00
2023-04-22T06:51:36.111Z,1085.00
2023-04-22T06:52:36.081Z,1095.00
2023-04-22T06:53:36.091Z,1093.00
2023-04-22T06:54:36.062Z,1090.00
2023-04-22T06:55:36.098Z,1088.00
2023-04-22T06:56:36.133Z,1085.00
2023-04-22T06:57:36.080Z,1088.00
2023-04-22T06:58:36.025Z,1085.00
2023-04-22T06:59:36.119Z,1084.00
2023-04-22T07:00:36.009Z,1083.00
2023-04-22T07:01:36.059Z,1076.00
2023-04-22T07:02:36.087Z,1076.00
2023-04-22T07:03:36.178Z,1081.00
2023-04-22T07:04:36.096Z,1084.00
2023-04-22T07:05:37.205Z,1078.00
2023-04-22T07:06:35.979Z,1100.00
2023-04-22T07:07:35.978Z,1080.00
2023-04-22T07:08:35.964Z,1070.00
2023-04-22T07:09:36.008Z,1079.00
2023-04-22T07:10:36.011Z,1087.00
2023-04-22T07:11:35.951Z,1080.00
2023-04-22T07:12:35.989Z,1089.00
2023-04-22T07:13:35.965Z,1088.00
2023-04-22T07:14:35.934Z,1068.00
2023-04-22T07:15:35.914Z,1081.00
2023-04-22T07:16:35.979Z,1080.00
2023-04-22T07:17:35.936Z,1086.00
2023-04-22T07:18:35.983Z,1082.00
2023-04-22T07:19:35.994Z,1067.00
2023-04-22T07:20:36.066Z,1081.00
2023-04-22T07:21:36.131Z,1069.00
2023-04-22T07:22:36.164Z,1079.00
2023-04-22T07:23:36.226Z,1083.00
2023-04-22T07:24:36.309Z,1092.00
2023-04-22T07:25:36.378Z,1066.00
2023-04-22T07:26:36.426Z,1082.00
2023-04-22T07:27:37.060Z,1084.00
2023-04-22T07:28:36.548Z,1080.00
2023-04-22T07:29:36.731Z,1078.00
2023-04-22T07:30:36.641Z,1078.00
2023-04-22T07:31:36.830Z,1077.00
2023-04-22T07:32:36.846Z,1064.00
2023-04-22T07:33:36.788Z,1081.00
2023-04-22T07:34:36.849Z,1082.00
2023-04-22T07:35:36.878Z,1076.00
2023-04-22T07:36:36.939Z,1079.00
2023-04-22T07:37:37.005Z,1077.00
2023-04-22T07:38:37.129Z,1076.00
2023-04-22T07:39:37.388Z,1083.00
2023-04-22T07:40:37.172Z,1088.00
2023-04-22T07:41:37.192Z,1075.00
2023-04-22T07:42:37.216Z,1090.00
2023-04-22T07:43:37.269Z,1088.00
2023-04-22T07:44:39.296Z,1095.00
2023-04-22T07:45:37.424Z,1093.00
2023-04-22T07:46:37.423Z,1073.00
2023-04-22T07:47:37.505Z,1096.00
2023-04-22T07:48:37.506Z,1084.00
2023-04-22T07:49:37.918Z,1087.00
2023-04-22T07:50:38.817Z,1074.00
2023-04-22T07:51:37.619Z,1100.00
2023-04-22T07:52:37.705Z,1080.00
2023-04-22T07:53:37.716Z,1092.00
2023-04-22T07:54:37.741Z,1092.00
2023-04-22T07:55:37.806Z,1075.00
2023-04-22T07:56:37.820Z,1088.00
2023-04-22T07:57:37.851Z,1081.00
2023-04-22T07:58:37.905Z,1094.00
2023-04-22T07:59:38.162Z,1080.00
2023-04-22T08:00:38.017Z,1092.00
2023-04-22T08:01:38.012Z,1080.00
2023-04-22T08:02:38.163Z,1081.00
2023-04-22T08:03:38.208Z,1088.00
2023-04-22T08:04:38.183Z,1074.00
2023-04-22T08:05:38.146Z,1074.00
2023-04-22T08:06:38.169Z,1071.00
2023-04-22T08:07:38.182Z,1085.00
2023-04-22T08:08:38.217Z,1075.00
2023-04-22T08:09:38.427Z,1081.00
2023-04-22T08:10:38.292Z,1090.00
2023-04-22T08:11:38.286Z,1101.00
2023-04-22T08:12:38.301Z,1085.00
2023-04-22T08:13:38.335Z,1095.00
2023-04-22T08:14:38.363Z,1088.00
2023-04-22T08:15:38.511Z,1094.00
2023-04-22T08:16:38.401Z,1100.00
2023-04-22T08:17:38.429Z,1081.00
2023-04-22T08:18:38.430Z,1087.00
2023-04-22T08:19:38.781Z,1095.00
2023-04-22T08:20:38.533Z,1110.00
2023-04-22T08:21:38.512Z,1095.00
2023-04-22T08:22:38.570Z,1083.00
2023-04-22T08:23:38.563Z,1104.00
2023-04-22T08:24:38.583Z,1090.00
2023-04-22T08:25:38.620Z,1101.00
2023-04-22T08:26:38.607Z,1104.00
2023-04-22T08:27:38.632Z,1098.00
2023-04-22T08:28:38.677Z,1097.00
2023-04-22T08:29:38.881Z,1096.00
2023-04-22T08:30:38.730Z,1113.00
2023-04-22T08:31:38.830Z,1103.00
2023-04-22T08:32:38.800Z,1109.00
2023-04-22T08:33:38.739Z,1094.00
2023-04-22T08:34:39.044Z,1098.00
2023-04-22T08:35:38.810Z,1110.00
2023-04-22T08:36:38.785Z,1087.00
2023-04-22T08:37:38.810Z,1106.00
2023-04-22T08:38:38.804Z,1105.00
2023-04-22T08:39:39.204Z,1114.00
2023-04-22T08:40:38.845Z,1117.00
2023-04-22T08:41:38.850Z,1099.00
2023-04-22T08:42:38.923Z,1111.00
2023-04-22T08:43:38.884Z,1111.00
2023-04-22T08:44:38.904Z,1106.00
2023-04-22T08:45:38.962Z,1114.00
2023-04-22T08:46:38.998Z,1103.00
2023-04-22T08:47:39.013Z,1115.00
2023-04-22T08:48:38.970Z,1138.00
2023-04-22T08:49:39.176Z,1124.00
2023-04-22T08:50:39.035Z,1119.00
2023-04-22T08:51:39.058Z,1125.00
2023-04-22T08:52:39.013Z,1121.00
2023-04-22T08:53:39.019Z,1124.00
2023-04-22T08:54:39.051Z,1129.00
2023-04-22T08:55:39.104Z,1128.00
2023-04-22T08:56:39.082Z,1116.00
2023-04-22T08:57:39.087Z,1135.00
2023-04-22T08:58:39.101Z,1138.00
2023-04-22T08:59:39.285Z,1140.00
2023-04-22T09:00:39.173Z,1136.00
2023-04-22T09:01:39.175Z,1134.00
2023-04-22T09:02:39.189Z,1139.00
2023-04-22T09:03:39.238Z,1144.00
2023-04-22T09:04:39.226Z,1141.00
2023-04-22T09:05:39.204Z,1145.00
2023-04-22T09:06:39.353Z,1153.00
2023-04-22T09:07:39.237Z,1143.00
2023-04-22T09:08:39.252Z,1146.00
2023-04-22T09:09:39.558Z,1145.00
2023-04-22T09:10:39.376Z,1134.00
2023-04-22T09:11:39.333Z,1143.00
2023-04-22T09:12:39.298Z,1156.00
2023-04-22T09:13:39.348Z,1159.00
2023-04-22T09:14:39.339Z,1154.00
2023-04-22T09:15:39.414Z,1156.00
2023-04-22T09:16:39.406Z,1142.00
2023-04-22T09:17:39.522Z,1152.00
2023-04-22T09:18:39.414Z,1148.00
2023-04-22T09:19:39.738Z,1155.00
2023-04-22T09:20:39.450Z,1153.00
2023-04-22T09:21:39.497Z,1163.00
2023-04-22T09:22:39.515Z,1167.00
2023-04-22T09:23:39.534Z,1167.00
2023-04-22T09:24:39.574Z,1158.00
2023-04-22T09:25:39.595Z,1173.00
2023-04-22T09:26:39.615Z,1169.00
2023-04-22T09:27:39.644Z,1159.00
2023-04-22T09:28:39.651Z,1178.00
2023-04-22T09:29:39.867Z,1160.00
2023-04-22T09:30:39.719Z,1162.00
2023-04-22T09:31:39.819Z,1173.00
2023-04-22T09:32:39.803Z,1166.00
2023-04-22T09:33:39.814Z,1180.00
2023-04-22T09:34:39.881Z,1163.00
2023-04-22T09:35:39.869Z,1163.00
2023-04-22T09:36:39.890Z,1155.00
2023-04-22T09:37:48.854Z,1173.00
2023-04-22T09:38:40.934Z,1174.00
2023-04-22T09:39:40.344Z,1166.00
2023-04-22T09:40:39.955Z,1165.00
2023-04-22T09:41:39.918Z,1176.00
2023-04-22T09:42:39.891Z,1178.00
2023-04-22T09:43:39.906Z,1172.00
2023-04-22T09:44:39.891Z,1171.00
2023-04-22T09:45:39.972Z,1157.00
2023-04-22T09:46:39.864Z,1173.00
2023-04-22T09:47:39.918Z,1168.00
2023-04-22T09:48:39.851Z,1157.00
2023-04-22T09:49:40.044Z,1174.00
2023-04-22T09:50:39.866Z,1153.00
2023-04-22T09:51:39.896Z,1151.00
2023-04-22T09:52:39.920Z,1170.00
2023-04-22T09:53:39.972Z,1159.00
2023-04-22T09:54:40.003Z,1148.00
2023-04-22T09:55:40.036Z,1162.00
2023-04-22T09:56:40.106Z,1167.00
2023-04-22T09:57:40.151Z,1163.00
2023-04-22T09:58:40.155Z,1155.00
2023-04-22T09:59:40.490Z,1159.00
2023-04-22T10:00:40.239Z,1162.00
2023-04-22T10:01:40.318Z,1161.00
2023-04-22T10:02:40.390Z,1151.00
2023-04-22T10:03:40.417Z,1149.00
2023-04-22T10:04:40.410Z,1158.00
2023-04-22T10:05:40.466Z,1155.00
2023-04-22T10:06:40.533Z,1136.00
2023-04-22T10:07:40.628Z,1153.00
2023-04-22T10:08:40.644Z,1148.00
2023-04-22T10:09:40.931Z,1163.00
2023-04-22T10:10:40.686Z,1147.00
2023-04-22T10:11:40.733Z,1141.00
2023-04-22T10:12:40.784Z,1145.00
2023-04-22T10:13:40.821Z,1140.00
2023-04-22T10:14:40.865Z,1155.00
2023-04-22T10:15:40.923Z,1147.00
2023-04-22T10:16:41.004Z,1140.00
2023-04-22T10:17:41.075Z,1147.00
2023-04-22T10:18:41.046Z,1142.00
2023-04-22T10:19:41.264Z,1136.00
2023-04-22T10:20:41.175Z,1144.00
2023-04-22T10:21:41.168Z,1141.00
2023-04-22T10:22:41.238Z,1132.00
2023-04-22T10:23:41.278Z,1144.00
2023-04-22T10:24:41.313Z,1149.00
2023-04-22T10:25:41.381Z,1143.00
2023-04-22T10:26:41.470Z,1134.00
2023-04-22T10:27:41.502Z,1141.00
2023-04-22T10:28:41.558Z,1139.00
2023-04-22T10:29:41.831Z,1127.00
2023-04-22T10:30:41.660Z,1136.00
2023-04-22T10:31:41.699Z,1142.00
2023-04-22T10:32:41.765Z,1146.00
2023-04-22T10:33:41.771Z,1140.00
2023-04-22T10:34:41.820Z,1133.00
2023-04-22T10:35:41.891Z,1127.00
2023-04-22T10:36:41.964Z,1141.00
2023-04-22T10:37:41.992Z,1128.00
2023-04-22T10:38:42.109Z,1143.00
2023-04-22T10:39:42.822Z,1125.00
2023-04-22T10:40:42.179Z,1136.00
2023-04-22T10:41:42.208Z,1134.00
2023-04-22T10:42:42.310Z,1131.00
2023-04-22T10:43:42.309Z,1143.00
2023-04-22T10:44:42.400Z,1117.00
2023-04-22T10:45:42.434Z,1125.00
2023-04-22T10:46:42.612Z,1132.00
2023-04-22T10:47:42.558Z,1132.00
2023-04-22T10:48:42.582Z,1123.00
2023-04-22T10:49:42.665Z,1139.00
2023-04-22T10:50:42.691Z,1125.00
2023-04-22T10:51:42.752Z,1127.00
2023-04-22T10:52:42.838Z,1133.00
2023-04-22T10:53:42.846Z,1112.00
2023-04-22T10:54:42.951Z,1132.00
2023-04-22T10:55:42.935Z,1122.00
2023-04-22T10:56:48.509Z,1114.00
2023-04-22T10:57:44.001Z,1115.00
2023-04-22T10:58:42.985Z,1115.00
2023-04-22T10:59:42.997Z,1119.00
2023-04-22T11:00:53.384Z,1112.00
2023-04-22T11:01:43.973Z,1116.00
2023-04-22T11:02:43.100Z,1118.00
2023-04-22T11:03:43.039Z,1122.00
2023-04-22T11:04:42.963Z,1108.00
2023-04-22T11:05:42.950Z,1121.00
2023-04-22T11:06:42.930Z,1116.00
2023-04-22T11:07:42.923Z,1111.00
2023-04-22T11:08:42.905Z,1121.00
2023-04-22T11:09:42.938Z,1109.00
2023-04-22T11:10:44.372Z,1093.00
2023-04-22T11:11:43.018Z,1105.00
2023-04-22T11:12:43.061Z,1092.00
2023-04-22T11:13:43.128Z,1101.00
2023-04-22T11:14:43.191Z,1105.00
2023-04-22T11:15:43.252Z,1091.00
2023-04-22T11:16:43.315Z,1095.00
2023-04-22T11:17:43.381Z,1083.00
2023-04-22T11:18:43.408Z,1085.00
2023-04-22T11:19:43.473Z,1078.00
2023-04-22T11:20:43.499Z,1093.00
2023-04-22T11:21:43.564Z,1090.00
2023-04-22T11:22:43.616Z,1079.00
2023-04-22T11:23:43.665Z,1068.00
2023-04-22T11:24:43.720Z,1080.00
2023-04-22T11:25:43.766Z,1088.00
2023-04-22T11:26:43.818Z,1074.00
2023-04-22T11:27:43.887Z,1074.00
2023-04-22T11:28:43.934Z,1073.00
2023-04-22T11:29:43.981Z,1067.00
2023-04-22T11:30:44.040Z,1075.00
2023-04-22T11:31:44.124Z,1072.00
2023-04-22T11:32:44.198Z,1077.00
2023-04-22T11:33:44.203Z,1069.00
2023-04-22T11:34:44.274Z,1072.00
2023-04-22T11:35:44.318Z,1065.00
2023-04-22T11:36:44.393Z,1085.00
2023-04-22T11:37:44.418Z,1085.00
2023-04-22T11:38:44.461Z,1077.00
2023-04-22T11:40:05.234Z,1048.00
2023-04-22T11:41:44.571Z,1053.00
2023-04-22T11:42:44.518Z,1054.00
2023-04-22T11:43:44.543Z,1056.00
2023-04-22T11:44:44.504Z,1084.00
2023-04-22T11:45:44.531Z,1054.00
2023-04-22T11:46:44.548Z,1059.00
2023-04-22T11:47:44.643Z,1054.00
2023-04-22T11:48:44.649Z,1063.00
2023-04-22T11:49:44.708Z,1064.00
2023-04-22T11:50:44.831Z,1062.00
2023-04-22T11:51:44.844Z,1064.00
2023-04-22T11:52:44.918Z,1064.00
2023-04-22T11:53:44.974Z,1052.00
2023-04-22T11:54:45.005Z,1057.00
2023-04-22T11:55:45.084Z,1062.00
2023-04-22T11:56:45.130Z,1066.00
2023-04-22T11:57:45.150Z,1059.00
2023-04-22T11:58:45.244Z,1058.00
2023-04-22T11:59:45.293Z,1066.00
2023-04-22T12:00:45.336Z,1068.00
2023-04-22T12:01:45.399Z,1059.00
2023-04-22T12:02:45.585Z,1068.00
2023-04-22T12:03:45.717Z,1063.00
2023-04-22T12:04:45.565Z,1062.00
2023-04-22T12:05:45.645Z,1080.00
2023-04-22T12:06:45.690Z,1055.00
2023-04-22T12:07:45.754Z,1066.00
2023-04-22T12:08:45.824Z,1068.00